Terminal Aerodrome Forecast
Issued by NWS Grand Forks, ND

Home | Current Version | Previous Version | Graphics & Text | Print | Product List | Glossary On
Versions: 1 2 3 4 5 6 7 8 9 10 11 12 13 14 15 16 17 18 19 20
000
FTUS43 KFGF 240314 AAA
TAFGFK
TAF AMD
KGFK 240314Z 2403/2424 11012KT P6SM -RA OVC080
      TEMPO 2404/2406 5SM -RA BR OVC025
     FM240600 12013KT P6SM VCSH OVC025
     FM240800 12013KT P6SM OVC015
     FM241000 13013KT P6SM OVC008
     FM241700 15016KT P6SM BKN015=

USA.gov is the U.S. government's official web portal to all federal, state and local government web resources and services.